In Rescue
 
Open Full Screen Window  High Contrast Mode
Wind Gusting 18 knots
10
April 19, 2021 5:11 PM PDT
Weather Information
Wind Direction
  260 °
Wind Speed
  10 kt (12 mph)
Wind Gust
  18 kt (21 mph)
Altimeter
29.93 in
Visibility
10 SM
Temperature
31° C
88° F
Dewpoint
-02° C
28° F
Humidity
12%
1hr Rain Fall
00.00 in.
24hr Rain Fall
00.00 in.
Sky Condition
Clear
VFR

METAR KSBD 200011Z AUTO 26010G18KT 10SM CLR 31/M02 A2993 RMK AO2 T03061025

FAA Disclaimer: The data displayed is for advisory purposes only and is not to be used for flight planning or operations.